sensor_id;sensor_type;location;lat;lon;timestamp;P1;durP1;ratioP1;P2;durP2;ratioP2
77978;SDS011;67169;50.268;8.694;2023-05-14T00:02:02;5.00;;;3.65;;
77978;SDS011;67169;50.268;8.694;2023-05-14T00:04:29;7.97;;;3.40;;
77978;SDS011;67169;50.268;8.694;2023-05-14T00:06:55;3.72;;;3.00;;
77978;SDS011;67169;50.268;8.694;2023-05-14T00:09:24;7.35;;;3.40;;
77978;SDS011;67169;50.268;8.694;2023-05-14T00:14:17;5.43;;;3.30;;
77978;SDS011;67169;50.268;8.694;2023-05-14T00:16:43;4.10;;;3.13;;
77978;SDS011;67169;50.268;8.694;2023-05-14T00:19:10;4.57;;;3.22;;
77978;SDS011;67169;50.268;8.694;2023-05-14T00:21:36;4.97;;;3.60;;
77978;SDS011;67169;50.268;8.694;2023-05-14T00:24:03;4.68;;;3.50;;
77978;SDS011;67169;50.268;8.694;2023-05-14T00:26:31;4.97;;;3.50;;
77978;SDS011;67169;50.268;8.694;2023-05-14T00:33:51;4.00;;;2.92;;
77978;SDS011;67169;50.268;8.694;2023-05-14T00:36:17;4.72;;;3.00;;
77978;SDS011;67169;50.268;8.694;2023-05-14T00:38:44;4.05;;;3.35;;
77978;SDS011;67169;50.268;8.694;2023-05-14T00:41:10;7.15;;;3.88;;
77978;SDS011;67169;50.268;8.694;2023-05-14T00:43:38;4.20;;;3.38;;
77978;SDS011;67169;50.268;8.694;2023-05-14T00:46:05;4.40;;;3.28;;
77978;SDS011;67169;50.268;8.694;2023-05-14T00:48:32;5.78;;;3.72;;
77978;SDS011;67169;50.268;8.694;2023-05-14T00:50:59;6.57;;;4.82;;
77978;SDS011;67169;50.268;8.694;2023-05-14T00:53:25;3.97;;;3.35;;
77978;SDS011;67169;50.268;8.694;2023-05-14T00:55:53;4.88;;;3.83;;
77978;SDS011;67169;50.268;8.694;2023-05-14T00:58:19;3.90;;;3.28;;
77978;SDS011;67169;50.268;8.694;2023-05-14T01:00:48;5.38;;;3.30;;
77978;SDS011;67169;50.268;8.694;2023-05-14T01:03:15;4.60;;;3.33;;
77978;SDS011;67169;50.268;8.694;2023-05-14T01:05:44;4.50;;;3.33;;
77978;SDS011;67169;50.268;8.694;2023-05-14T01:08:30;3.53;;;3.22;;
77978;SDS011;67169;50.268;8.694;2023-05-14T01:11:02;4.93;;;3.60;;
77978;SDS011;67169;50.268;8.694;2023-05-14T01:13:32;4.47;;;3.50;;
77978;SDS011;67169;50.268;8.694;2023-05-14T01:16:08;6.97;;;3.60;;
77978;SDS011;67169;50.268;8.694;2023-05-14T01:18:38;5.05;;;3.55;;
77978;SDS011;67169;50.268;8.694;2023-05-14T01:21:17;4.60;;;3.25;;
77978;SDS011;67169;50.268;8.694;2023-05-14T01:23:47;4.13;;;2.92;;
77978;SDS011;67169;50.268;8.694;2023-05-14T01:26:13;5.22;;;3.55;;
77978;SDS011;67169;50.268;8.694;2023-05-14T01:28:40;6.93;;;3.55;;
77978;SDS011;67169;50.268;8.694;2023-05-14T01:31:11;4.30;;;3.40;;
77978;SDS011;67169;50.268;8.694;2023-05-14T01:33:43;5.85;;;4.20;;
77978;SDS011;67169;50.268;8.694;2023-05-14T01:36:13;5.80;;;3.65;;
77978;SDS011;67169;50.268;8.694;2023-05-14T01:38:40;4.68;;;3.60;;
77978;SDS011;67169;50.268;8.694;2023-05-14T01:41:11;4.85;;;3.42;;
77978;SDS011;67169;50.268;8.694;2023-05-14T01:43:38;5.18;;;3.55;;
77978;SDS011;67169;50.268;8.694;2023-05-14T01:46:06;4.97;;;3.90;;
77978;SDS011;67169;50.268;8.694;2023-05-14T01:48:32;5.55;;;3.38;;
77978;SDS011;67169;50.268;8.694;2023-05-14T01:50:59;6.10;;;3.70;;
77978;SDS011;67169;50.268;8.694;2023-05-14T01:53:26;5.38;;;3.72;;
77978;SDS011;67169;50.268;8.694;2023-05-14T01:55:52;5.38;;;4.18;;
77978;SDS011;67169;50.268;8.694;2023-05-14T01:58:20;5.00;;;4.00;;
77978;SDS011;67169;50.268;8.694;2023-05-14T02:00:47;7.47;;;3.95;;
77978;SDS011;67169;50.268;8.694;2023-05-14T02:03:13;4.70;;;3.65;;
77978;SDS011;67169;50.268;8.694;2023-05-14T02:05:40;5.78;;;3.88;;
77978;SDS011;67169;50.268;8.694;2023-05-14T02:08:06;6.93;;;4.53;;
77978;SDS011;67169;50.268;8.694;2023-05-14T02:10:33;5.80;;;4.00;;
77978;SDS011;67169;50.268;8.694;2023-05-14T02:12:59;4.97;;;3.90;;
77978;SDS011;67169;50.268;8.694;2023-05-14T02:15:27;4.82;;;4.15;;
77978;SDS011;67169;50.268;8.694;2023-05-14T02:17:54;5.55;;;4.28;;
77978;SDS011;67169;50.268;8.694;2023-05-14T02:20:21;5.57;;;4.18;;
77978;SDS011;67169;50.268;8.694;2023-05-14T02:22:47;6.22;;;3.83;;
77978;SDS011;67169;50.268;8.694;2023-05-14T02:25:14;6.20;;;4.68;;
77978;SDS011;67169;50.268;8.694;2023-05-14T02:27:41;5.40;;;4.22;;
77978;SDS011;67169;50.268;8.694;2023-05-14T02:30:08;4.15;;;3.72;;
77978;SDS011;67169;50.268;8.694;2023-05-14T02:32:37;6.03;;;3.85;;
77978;SDS011;67169;50.268;8.694;2023-05-14T02:37:30;5.80;;;4.05;;
77978;SDS011;67169;50.268;8.694;2023-05-14T02:39:58;6.10;;;4.20;;
77978;SDS011;67169;50.268;8.694;2023-05-14T02:42:25;6.78;;;4.22;;
77978;SDS011;67169;50.268;8.694;2023-05-14T02:44:52;8.90;;;4.15;;
77978;SDS011;67169;50.268;8.694;2023-05-14T02:47:18;4.32;;;3.90;;
77978;SDS011;67169;50.268;8.694;2023-05-14T02:49:46;5.55;;;4.18;;
77978;SDS011;67169;50.268;8.694;2023-05-14T02:54:39;5.30;;;4.07;;
77978;SDS011;67169;50.268;8.694;2023-05-14T02:57:06;5.18;;;4.22;;
77978;SDS011;67169;50.268;8.694;2023-05-14T02:59:32;7.38;;;4.00;;
77978;SDS011;67169;50.268;8.694;2023-05-14T03:01:59;5.40;;;3.80;;
77978;SDS011;67169;50.268;8.694;2023-05-14T03:04:25;5.15;;;3.83;;
77978;SDS011;67169;50.268;8.694;2023-05-14T03:06:53;4.75;;;3.30;;
77978;SDS011;67169;50.268;8.694;2023-05-14T03:09:20;4.18;;;3.67;;
77978;SDS011;67169;50.268;8.694;2023-05-14T03:11:46;4.50;;;3.75;;
77978;SDS011;67169;50.268;8.694;2023-05-14T03:14:13;5.35;;;3.92;;
77978;SDS011;67169;50.268;8.694;2023-05-14T03:16:40;5.45;;;4.43;;
77978;SDS011;67169;50.268;8.694;2023-05-14T03:19:06;4.25;;;3.42;;
77978;SDS011;67169;50.268;8.694;2023-05-14T03:21:33;5.22;;;3.80;;
77978;SDS011;67169;50.268;8.694;2023-05-14T03:24:01;4.90;;;4.05;;
77978;SDS011;67169;50.268;8.694;2023-05-14T03:26:28;4.68;;;3.85;;
77978;SDS011;67169;50.268;8.694;2023-05-14T03:28:55;5.03;;;3.60;;
77978;SDS011;67169;50.268;8.694;2023-05-14T03:31:21;4.25;;;3.53;;
77978;SDS011;67169;50.268;8.694;2023-05-14T03:33:48;5.60;;;3.70;;
77978;SDS011;67169;50.268;8.694;2023-05-14T03:36:15;4.88;;;3.58;;
77978;SDS011;67169;50.268;8.694;2023-05-14T03:38:41;5.18;;;3.50;;
77978;SDS011;67169;50.268;8.694;2023-05-14T03:41:09;3.65;;;3.10;;
77978;SDS011;67169;50.268;8.694;2023-05-14T03:43:35;4.70;;;3.58;;
77978;SDS011;67169;50.268;8.694;2023-05-14T03:46:02;3.55;;;3.22;;
77978;SDS011;67169;50.268;8.694;2023-05-14T03:48:29;4.00;;;3.13;;
77978;SDS011;67169;50.268;8.694;2023-05-14T03:50:55;6.72;;;3.78;;
77978;SDS011;67169;50.268;8.694;2023-05-14T03:53:22;6.88;;;3.60;;
77978;SDS011;67169;50.268;8.694;2023-05-14T03:55:48;3.72;;;3.35;;
77978;SDS011;67169;50.268;8.694;2023-05-14T03:58:16;5.10;;;3.65;;
77978;SDS011;67169;50.268;8.694;2023-05-14T04:00:43;6.55;;;4.18;;
77978;SDS011;67169;50.268;8.694;2023-05-14T04:03:09;4.72;;;3.65;;
77978;SDS011;67169;50.268;8.694;2023-05-14T04:05:36;6.03;;;3.88;;
77978;SDS011;67169;50.268;8.694;2023-05-14T04:08:02;6.55;;;4.35;;
77978;SDS011;67169;50.268;8.694;2023-05-14T04:10:29;5.45;;;4.10;;
77978;SDS011;67169;50.268;8.694;2023-05-14T04:12:57;5.40;;;4.00;;
77978;SDS011;67169;50.268;8.694;2023-05-14T04:15:25;4.10;;;3.45;;
77978;SDS011;67169;50.268;8.694;2023-05-14T04:17:51;5.75;;;4.03;;
77978;SDS011;67169;50.268;8.694;2023-05-14T04:20:18;5.57;;;4.10;;
77978;SDS011;67169;50.268;8.694;2023-05-14T04:22:45;5.82;;;3.95;;
77978;SDS011;67169;50.268;8.694;2023-05-14T04:25:11;5.20;;;3.83;;
77978;SDS011;67169;50.268;8.694;2023-05-14T04:27:38;4.80;;;3.92;;
77978;SDS011;67169;50.268;8.694;2023-05-14T04:30:05;5.32;;;3.85;;
77978;SDS011;67169;50.268;8.694;2023-05-14T04:35:01;4.78;;;3.80;;
77978;SDS011;67169;50.268;8.694;2023-05-14T04:37:28;4.57;;;3.78;;
77978;SDS011;67169;50.268;8.694;2023-05-14T04:39:54;5.10;;;3.80;;
77978;SDS011;67169;50.268;8.694;2023-05-14T04:42:21;5.65;;;4.50;;
77978;SDS011;67169;50.268;8.694;2023-05-14T04:44:48;5.85;;;4.15;;
77978;SDS011;67169;50.268;8.694;2023-05-14T04:47:14;4.63;;;3.63;;
77978;SDS011;67169;50.268;8.694;2023-05-14T04:49:42;6.80;;;4.40;;
77978;SDS011;67169;50.268;8.694;2023-05-14T04:57:01;6.50;;;4.28;;
77978;SDS011;67169;50.268;8.694;2023-05-14T04:59:28;6.85;;;4.15;;
77978;SDS011;67169;50.268;8.694;2023-05-14T05:01:54;6.28;;;4.72;;
77978;SDS011;67169;50.268;8.694;2023-05-14T05:04:21;6.38;;;4.30;;
77978;SDS011;67169;50.268;8.694;2023-05-14T05:06:50;6.25;;;4.72;;
77978;SDS011;67169;50.268;8.694;2023-05-14T05:11:43;4.60;;;4.05;;
77978;SDS011;67169;50.268;8.694;2023-05-14T05:14:09;6.38;;;4.32;;
77978;SDS011;67169;50.268;8.694;2023-05-14T05:16:36;5.50;;;4.30;;
77978;SDS011;67169;50.268;8.694;2023-05-14T05:19:02;6.55;;;4.63;;
77978;SDS011;67169;50.268;8.694;2023-05-14T05:21:29;6.93;;;3.95;;
77978;SDS011;67169;50.268;8.694;2023-05-14T05:23:57;5.72;;;4.15;;
77978;SDS011;67169;50.268;8.694;2023-05-14T05:28:51;4.97;;;3.65;;
77978;SDS011;67169;50.268;8.694;2023-05-14T05:31:17;4.90;;;4.25;;
77978;SDS011;67169;50.268;8.694;2023-05-14T05:33:44;4.82;;;3.75;;
77978;SDS011;67169;50.268;8.694;2023-05-14T05:36:11;7.55;;;4.20;;
77978;SDS011;67169;50.268;8.694;2023-05-14T05:38:37;5.10;;;4.20;;
77978;SDS011;67169;50.268;8.694;2023-05-14T05:41:05;6.22;;;4.43;;
77978;SDS011;67169;50.268;8.694;2023-05-14T05:43:32;6.15;;;5.25;;
77978;SDS011;67169;50.268;8.694;2023-05-14T05:45:59;6.32;;;4.75;;
77978;SDS011;67169;50.268;8.694;2023-05-14T05:48:25;6.75;;;5.05;;
77978;SDS011;67169;50.268;8.694;2023-05-14T05:50:52;8.60;;;5.18;;
77978;SDS011;67169;50.268;8.694;2023-05-14T05:53:19;7.18;;;4.65;;
77978;SDS011;67169;50.268;8.694;2023-05-14T05:55:45;6.57;;;5.45;;
77978;SDS011;67169;50.268;8.694;2023-05-14T05:58:13;7.82;;;5.63;;
77978;SDS011;67169;50.268;8.694;2023-05-14T06:00:41;6.70;;;5.53;;
77978;SDS011;67169;50.268;8.694;2023-05-14T06:03:07;6.90;;;5.55;;
77978;SDS011;67169;50.268;8.694;2023-05-14T06:05:34;5.80;;;4.70;;
77978;SDS011;67169;50.268;8.694;2023-05-14T06:08:01;6.60;;;5.43;;
77978;SDS011;67169;50.268;8.694;2023-05-14T06:10:27;5.25;;;4.53;;
77978;SDS011;67169;50.268;8.694;2023-05-14T06:12:54;6.78;;;4.93;;
77978;SDS011;67169;50.268;8.694;2023-05-14T06:15:22;5.15;;;4.15;;
77978;SDS011;67169;50.268;8.694;2023-05-14T06:17:48;6.38;;;4.43;;
77978;SDS011;67169;50.268;8.694;2023-05-14T06:20:15;5.90;;;4.82;;
77978;SDS011;67169;50.268;8.694;2023-05-14T06:22:42;6.03;;;4.50;;
77978;SDS011;67169;50.268;8.694;2023-05-14T06:25:09;6.45;;;4.28;;
77978;SDS011;67169;50.268;8.694;2023-05-14T06:30:03;5.25;;;3.63;;
77978;SDS011;67169;50.268;8.694;2023-05-14T06:32:32;6.22;;;3.88;;
77978;SDS011;67169;50.268;8.694;2023-05-14T06:34:58;4.78;;;4.30;;
77978;SDS011;67169;50.268;8.694;2023-05-14T06:37:25;4.97;;;3.60;;
77978;SDS011;67169;50.268;8.694;2023-05-14T06:39:52;4.47;;;3.70;;
77978;SDS011;67169;50.268;8.694;2023-05-14T06:42:18;3.83;;;3.53;;
77978;SDS011;67169;50.268;8.694;2023-05-14T06:44:45;4.10;;;3.63;;
77978;SDS011;67169;50.268;8.694;2023-05-14T06:47:12;3.33;;;2.97;;
77978;SDS011;67169;50.268;8.694;2023-05-14T06:49:39;3.40;;;2.80;;
77978;SDS011;67169;50.268;8.694;2023-05-14T06:52:06;3.03;;;2.75;;
77978;SDS011;67169;50.268;8.694;2023-05-14T06:54:33;3.30;;;3.00;;
77978;SDS011;67169;50.268;8.694;2023-05-14T06:56:59;3.00;;;2.72;;
77978;SDS011;67169;50.268;8.694;2023-05-14T06:59:26;4.32;;;2.83;;
77978;SDS011;67169;50.268;8.694;2023-05-14T07:01:53;3.42;;;2.70;;
77978;SDS011;67169;50.268;8.694;2023-05-14T07:04:19;3.50;;;2.67;;
77978;SDS011;67169;50.268;8.694;2023-05-14T07:06:47;3.30;;;2.92;;
77978;SDS011;67169;50.268;8.694;2023-05-14T07:09:14;3.63;;;2.53;;
77978;SDS011;67169;50.268;8.694;2023-05-14T07:11:41;3.65;;;2.90;;
77978;SDS011;67169;50.268;8.694;2023-05-14T07:14:08;2.85;;;2.65;;
77978;SDS011;67169;50.268;8.694;2023-05-14T07:16:34;2.95;;;2.70;;
77978;SDS011;67169;50.268;8.694;2023-05-14T07:19:01;3.70;;;2.55;;
77978;SDS011;67169;50.268;8.694;2023-05-14T07:21:28;4.47;;;2.65;;
77978;SDS011;67169;50.268;8.694;2023-05-14T07:26:23;3.42;;;2.47;;
77978;SDS011;67169;50.268;8.694;2023-05-14T07:28:50;3.13;;;2.72;;
77978;SDS011;67169;50.268;8.694;2023-05-14T07:31:16;3.60;;;2.97;;
77978;SDS011;67169;50.268;8.694;2023-05-14T07:33:43;4.22;;;3.83;;
77978;SDS011;67169;50.268;8.694;2023-05-14T07:36:10;3.95;;;2.88;;
77978;SDS011;67169;50.268;8.694;2023-05-14T07:38:36;5.22;;;2.97;;
77978;SDS011;67169;50.268;8.694;2023-05-14T07:41:04;3.95;;;2.97;;
77978;SDS011;67169;50.268;8.694;2023-05-14T07:43:31;4.80;;;2.70;;
77978;SDS011;67169;50.268;8.694;2023-05-14T07:45:58;3.22;;;2.88;;
77978;SDS011;67169;50.268;8.694;2023-05-14T07:48:24;3.55;;;3.25;;
77978;SDS011;67169;50.268;8.694;2023-05-14T07:50:51;3.28;;;2.95;;
77978;SDS011;67169;50.268;8.694;2023-05-14T07:53:18;3.03;;;2.65;;
77978;SDS011;67169;50.268;8.694;2023-05-14T07:55:44;3.45;;;2.72;;
77978;SDS011;67169;50.268;8.694;2023-05-14T07:58:13;3.53;;;2.80;;
77978;SDS011;67169;50.268;8.694;2023-05-14T08:00:40;3.60;;;2.80;;
77978;SDS011;67169;50.268;8.694;2023-05-14T08:03:07;3.05;;;2.40;;
77978;SDS011;67169;50.268;8.694;2023-05-14T08:05:33;2.80;;;2.45;;
77978;SDS011;67169;50.268;8.694;2023-05-14T08:08:00;3.30;;;2.67;;
77978;SDS011;67169;50.268;8.694;2023-05-14T08:10:26;4.50;;;2.90;;
77978;SDS011;67169;50.268;8.694;2023-05-14T08:12:53;2.78;;;2.40;;
77978;SDS011;67169;50.268;8.694;2023-05-14T08:15:21;3.10;;;2.50;;
77978;SDS011;67169;50.268;8.694;2023-05-14T08:17:48;2.83;;;2.60;;
77978;SDS011;67169;50.268;8.694;2023-05-14T08:20:14;4.90;;;2.65;;
77978;SDS011;67169;50.268;8.694;2023-05-14T08:22:41;2.90;;;2.30;;
77978;SDS011;67169;50.268;8.694;2023-05-14T08:25:08;2.33;;;1.90;;
77978;SDS011;67169;50.268;8.694;2023-05-14T08:27:35;2.60;;;2.33;;
77978;SDS011;67169;50.268;8.694;2023-05-14T08:30:02;2.55;;;2.30;;
77978;SDS011;67169;50.268;8.694;2023-05-14T08:32:30;3.40;;;2.78;;
77978;SDS011;67169;50.268;8.694;2023-05-14T08:34:57;4.30;;;2.92;;
77978;SDS011;67169;50.268;8.694;2023-05-14T08:37:23;2.92;;;2.63;;
77978;SDS011;67169;50.268;8.694;2023-05-14T08:39:50;3.17;;;2.50;;
77978;SDS011;67169;50.268;8.694;2023-05-14T08:42:18;3.97;;;2.83;;
77978;SDS011;67169;50.268;8.694;2023-05-14T08:44:47;3.88;;;2.67;;
77978;SDS011;67169;50.268;8.694;2023-05-14T08:47:15;3.50;;;2.53;;
77978;SDS011;67169;50.268;8.694;2023-05-14T08:49:45;2.50;;;2.22;;
77978;SDS011;67169;50.268;8.694;2023-05-14T08:52:14;2.60;;;2.25;;
77978;SDS011;67169;50.268;8.694;2023-05-14T08:54:43;2.42;;;2.20;;
77978;SDS011;67169;50.268;8.694;2023-05-14T08:57:11;3.05;;;2.38;;
77978;SDS011;67169;50.268;8.694;2023-05-14T08:59:39;4.95;;;2.63;;
77978;SDS011;67169;50.268;8.694;2023-05-14T09:02:06;2.95;;;2.67;;
77978;SDS011;67169;50.268;8.694;2023-05-14T09:04:35;4.47;;;2.30;;
77978;SDS011;67169;50.268;8.694;2023-05-14T09:07:03;2.60;;;2.10;;
77978;SDS011;67169;50.268;8.694;2023-05-14T09:09:31;2.35;;;2.10;;
77978;SDS011;67169;50.268;8.694;2023-05-14T09:11:58;2.22;;;2.03;;
77978;SDS011;67169;50.268;8.694;2023-05-14T09:14:26;3.00;;;2.55;;
77978;SDS011;67169;50.268;8.694;2023-05-14T09:16:53;2.60;;;2.05;;
77978;SDS011;67169;50.268;8.694;2023-05-14T09:19:21;2.53;;;2.22;;
77978;SDS011;67169;50.268;8.694;2023-05-14T09:21:48;2.80;;;2.45;;
77978;SDS011;67169;50.268;8.694;2023-05-14T09:26:48;2.88;;;2.15;;
77978;SDS011;67169;50.268;8.694;2023-05-14T09:29:16;3.45;;;2.30;;
77978;SDS011;67169;50.268;8.694;2023-05-14T09:31:43;2.72;;;2.47;;
77978;SDS011;67169;50.268;8.694;2023-05-14T09:34:09;3.42;;;2.30;;
77978;SDS011;67169;50.268;8.694;2023-05-14T09:36:36;2.63;;;2.17;;
77978;SDS011;67169;50.268;8.694;2023-05-14T09:39:03;2.67;;;1.90;;
77978;SDS011;67169;50.268;8.694;2023-05-14T09:41:31;2.13;;;1.90;;
77978;SDS011;67169;50.268;8.694;2023-05-14T09:43:58;2.35;;;2.15;;
77978;SDS011;67169;50.268;8.694;2023-05-14T09:46:26;2.42;;;1.83;;
77978;SDS011;67169;50.268;8.694;2023-05-14T09:48:54;2.30;;;2.10;;
77978;SDS011;67169;50.268;8.694;2023-05-14T09:51:21;2.85;;;1.63;;
77978;SDS011;67169;50.268;8.694;2023-05-14T09:53:48;2.15;;;1.95;;
77978;SDS011;67169;50.268;8.694;2023-05-14T09:56:17;3.65;;;2.17;;
77978;SDS011;67169;50.268;8.694;2023-05-14T09:58:47;2.72;;;1.77;;
77978;SDS011;67169;50.268;8.694;2023-05-14T10:01:13;2.55;;;2.08;;
77978;SDS011;67169;50.268;8.694;2023-05-14T10:03:43;3.00;;;2.33;;
77978;SDS011;67169;50.268;8.694;2023-05-14T10:06:10;2.65;;;1.90;;
77978;SDS011;67169;50.268;8.694;2023-05-14T10:08:42;3.63;;;2.45;;
77978;SDS011;67169;50.268;8.694;2023-05-14T10:11:11;2.67;;;2.10;;
77978;SDS011;67169;50.268;8.694;2023-05-14T10:13:40;3.17;;;2.10;;
77978;SDS011;67169;50.268;8.694;2023-05-14T10:16:12;2.70;;;1.75;;
77978;SDS011;67169;50.268;8.694;2023-05-14T10:18:42;4.47;;;1.80;;
77978;SDS011;67169;50.268;8.694;2023-05-14T10:21:13;2.55;;;2.03;;
77978;SDS011;67169;50.268;8.694;2023-05-14T10:23:40;3.90;;;2.20;;
77978;SDS011;67169;50.268;8.694;2023-05-14T10:26:08;2.42;;;2.03;;
77978;SDS011;67169;50.268;8.694;2023-05-14T10:28:35;3.65;;;2.33;;
77978;SDS011;67169;50.268;8.694;2023-05-14T10:31:02;2.30;;;2.10;;
77978;SDS011;67169;50.268;8.694;2023-05-14T10:33:30;2.33;;;1.83;;
77978;SDS011;67169;50.268;8.694;2023-05-14T10:36:12;3.05;;;2.10;;
77978;SDS011;67169;50.268;8.694;2023-05-14T10:38:38;1.90;;;1.80;;
77978;SDS011;67169;50.268;8.694;2023-05-14T10:41:06;3.17;;;2.38;;
77978;SDS011;67169;50.268;8.694;2023-05-14T10:43:37;2.35;;;1.90;;
77978;SDS011;67169;50.268;8.694;2023-05-14T10:46:05;3.33;;;1.85;;
77978;SDS011;67169;50.268;8.694;2023-05-14T10:48:34;2.25;;;2.05;;
77978;SDS011;67169;50.268;8.694;2023-05-14T10:51:02;1.90;;;1.77;;
77978;SDS011;67169;50.268;8.694;2023-05-14T10:53:33;2.30;;;2.10;;
77978;SDS011;67169;50.268;8.694;2023-05-14T10:56:04;2.33;;;1.80;;
77978;SDS011;67169;50.268;8.694;2023-05-14T10:58:36;2.42;;;2.08;;
77978;SDS011;67169;50.268;8.694;2023-05-14T11:01:04;2.05;;;1.85;;
77978;SDS011;67169;50.268;8.694;2023-05-14T11:03:31;1.80;;;1.60;;
77978;SDS011;67169;50.268;8.694;2023-05-14T11:06:06;2.13;;;1.92;;
77978;SDS011;67169;50.268;8.694;2023-05-14T11:08:34;2.17;;;1.67;;
77978;SDS011;67169;50.268;8.694;2023-05-14T11:11:01;1.70;;;1.60;;
77978;SDS011;67169;50.268;8.694;2023-05-14T11:13:28;1.75;;;1.45;;
77978;SDS011;67169;50.268;8.694;2023-05-14T11:15:55;1.90;;;1.67;;
77978;SDS011;67169;50.268;8.694;2023-05-14T11:18:26;2.22;;;2.03;;
77978;SDS011;67169;50.268;8.694;2023-05-14T11:20:58;2.92;;;2.20;;
77978;SDS011;67169;50.268;8.694;2023-05-14T11:23:25;1.83;;;1.63;;
77978;SDS011;67169;50.268;8.694;2023-05-14T11:25:52;2.00;;;1.65;;
77978;SDS011;67169;50.268;8.694;2023-05-14T11:28:19;1.73;;;1.63;;
77978;SDS011;67169;50.268;8.694;2023-05-14T11:33:13;2.30;;;1.92;;
77978;SDS011;67169;50.268;8.694;2023-05-14T11:38:13;3.38;;;1.92;;
77978;SDS011;67169;50.268;8.694;2023-05-14T11:40:40;1.98;;;1.77;;
77978;SDS011;67169;50.268;8.694;2023-05-14T11:43:07;3.80;;;2.10;;
77978;SDS011;67169;50.268;8.694;2023-05-14T11:45:33;3.70;;;2.50;;
77978;SDS011;67169;50.268;8.694;2023-05-14T11:48:00;2.33;;;1.77;;
77978;SDS011;67169;50.268;8.694;2023-05-14T11:50:27;2.50;;;2.00;;
77978;SDS011;67169;50.268;8.694;2023-05-14T11:52:55;1.88;;;1.77;;
77978;SDS011;67169;50.268;8.694;2023-05-14T11:55:23;3.08;;;1.80;;
77978;SDS011;67169;50.268;8.694;2023-05-14T11:57:50;3.03;;;1.90;;
77978;SDS011;67169;50.268;8.694;2023-05-14T12:00:17;2.17;;;1.77;;
77978;SDS011;67169;50.268;8.694;2023-05-14T12:02:46;2.97;;;1.80;;
77978;SDS011;67169;50.268;8.694;2023-05-14T12:05:13;1.98;;;1.75;;
77978;SDS011;67169;50.268;8.694;2023-05-14T12:07:39;1.60;;;1.48;;
77978;SDS011;67169;50.268;8.694;2023-05-14T12:10:10;1.73;;;1.52;;
77978;SDS011;67169;50.268;8.694;2023-05-14T12:12:38;1.35;;;1.25;;
77978;SDS011;67169;50.268;8.694;2023-05-14T12:15:09;1.60;;;1.50;;
77978;SDS011;67169;50.268;8.694;2023-05-14T12:17:37;1.52;;;1.42;;
77978;SDS011;67169;50.268;8.694;2023-05-14T12:22:34;1.60;;;1.50;;
77978;SDS011;67169;50.268;8.694;2023-05-14T12:25:02;3.28;;;1.70;;
77978;SDS011;67169;50.268;8.694;2023-05-14T12:27:29;2.03;;;1.33;;
77978;SDS011;67169;50.268;8.694;2023-05-14T12:29:58;2.08;;;1.88;;
77978;SDS011;67169;50.268;8.694;2023-05-14T12:32:27;1.50;;;1.40;;
77978;SDS011;67169;50.268;8.694;2023-05-14T12:34:53;1.83;;;1.60;;
77978;SDS011;67169;50.268;8.694;2023-05-14T12:37:20;2.63;;;1.90;;
77978;SDS011;67169;50.268;8.694;2023-05-14T12:39:47;1.98;;;1.55;;
77978;SDS011;67169;50.268;8.694;2023-05-14T12:42:13;2.10;;;1.60;;
77978;SDS011;67169;50.268;8.694;2023-05-14T12:44:40;2.17;;;1.40;;
77978;SDS011;67169;50.268;8.694;2023-05-14T12:47:08;1.90;;;1.70;;
77978;SDS011;67169;50.268;8.694;2023-05-14T12:49:35;1.58;;;1.38;;
77978;SDS011;67169;50.268;8.694;2023-05-14T12:52:02;2.63;;;1.35;;
77978;SDS011;67169;50.268;8.694;2023-05-14T12:54:28;1.40;;;1.30;;
77978;SDS011;67169;50.268;8.694;2023-05-14T12:56:55;2.03;;;1.30;;
77978;SDS011;67169;50.268;8.694;2023-05-14T12:59:22;1.45;;;1.35;;
77978;SDS011;67169;50.268;8.694;2023-05-14T13:01:49;1.40;;;1.30;;
77978;SDS011;67169;50.268;8.694;2023-05-14T13:04:17;1.25;;;1.15;;
77978;SDS011;67169;50.268;8.694;2023-05-14T13:06:43;1.25;;;1.15;;
77978;SDS011;67169;50.268;8.694;2023-05-14T13:09:10;1.50;;;1.40;;
77978;SDS011;67169;50.268;8.694;2023-05-14T13:11:36;2.00;;;1.30;;
77978;SDS011;67169;50.268;8.694;2023-05-14T13:14:03;1.80;;;1.70;;
77978;SDS011;67169;50.268;8.694;2023-05-14T13:16:29;1.98;;;1.67;;
77978;SDS011;67169;50.268;8.694;2023-05-14T13:18:56;2.60;;;1.50;;
77978;SDS011;67169;50.268;8.694;2023-05-14T13:21:24;1.58;;;1.42;;
77978;SDS011;67169;50.268;8.694;2023-05-14T13:23:50;2.15;;;1.48;;
77978;SDS011;67169;50.268;8.694;2023-05-14T13:26:17;1.27;;;1.17;;
77978;SDS011;67169;50.268;8.694;2023-05-14T13:28:43;1.50;;;1.40;;
77978;SDS011;67169;50.268;8.694;2023-05-14T13:31:11;1.90;;;1.48;;
77978;SDS011;67169;50.268;8.694;2023-05-14T13:33:39;2.30;;;1.40;;
77978;SDS011;67169;50.268;8.694;2023-05-14T13:36:07;1.95;;;1.30;;
77978;SDS011;67169;50.268;8.694;2023-05-14T13:38:37;1.52;;;1.10;;
77978;SDS011;67169;50.268;8.694;2023-05-14T13:41:03;1.85;;;1.40;;
77978;SDS011;67169;50.268;8.694;2023-05-14T13:45:58;2.35;;;1.80;;
77978;SDS011;67169;50.268;8.694;2023-05-14T13:50:51;2.20;;;1.70;;
77978;SDS011;67169;50.268;8.694;2023-05-14T13:53:18;1.80;;;1.50;;
77978;SDS011;67169;50.268;8.694;2023-05-14T13:55:47;1.50;;;1.17;;
77978;SDS011;67169;50.268;8.694;2023-05-14T13:58:14;1.98;;;1.35;;
77978;SDS011;67169;50.268;8.694;2023-05-14T14:03:07;1.33;;;1.23;;
77978;SDS011;67169;50.268;8.694;2023-05-14T14:05:34;1.23;;;1.13;;
77978;SDS011;67169;50.268;8.694;2023-05-14T14:08:01;2.03;;;1.20;;
77978;SDS011;67169;50.268;8.694;2023-05-14T14:10:27;3.92;;;1.50;;
77978;SDS011;67169;50.268;8.694;2023-05-14T14:12:55;1.45;;;1.10;;
77978;SDS011;67169;50.268;8.694;2023-05-14T14:15:22;1.23;;;1.10;;
77978;SDS011;67169;50.268;8.694;2023-05-14T14:17:48;1.85;;;1.17;;
77978;SDS011;67169;50.268;8.694;2023-05-14T14:20:15;1.58;;;1.25;;
77978;SDS011;67169;50.268;8.694;2023-05-14T14:22:42;1.25;;;1.15;;
77978;SDS011;67169;50.268;8.694;2023-05-14T14:25:09;1.40;;;1.10;;
77978;SDS011;67169;50.268;8.694;2023-05-14T14:27:36;1.52;;;1.00;;
77978;SDS011;67169;50.268;8.694;2023-05-14T14:30:06;1.35;;;1.00;;
77978;SDS011;67169;50.268;8.694;2023-05-14T14:32:33;1.40;;;1.30;;
77978;SDS011;67169;50.268;8.694;2023-05-14T14:35:00;1.33;;;1.23;;
77978;SDS011;67169;50.268;8.694;2023-05-14T14:39:53;1.05;;;0.95;;
77978;SDS011;67169;50.268;8.694;2023-05-14T14:42:19;1.38;;;1.27;;
77978;SDS011;67169;50.268;8.694;2023-05-14T14:44:46;1.45;;;1.35;;
77978;SDS011;67169;50.268;8.694;2023-05-14T14:47:14;1.83;;;1.38;;
77978;SDS011;67169;50.268;8.694;2023-05-14T14:49:40;1.60;;;1.50;;
77978;SDS011;67169;50.268;8.694;2023-05-14T14:52:07;1.88;;;1.40;;
77978;SDS011;67169;50.268;8.694;2023-05-14T14:54:33;1.40;;;1.30;;
77978;SDS011;67169;50.268;8.694;2023-05-14T14:57:00;2.60;;;1.15;;
77978;SDS011;67169;50.268;8.694;2023-05-14T14:59:27;1.83;;;1.38;;
77978;SDS011;67169;50.268;8.694;2023-05-14T15:01:53;2.88;;;1.35;;
77978;SDS011;67169;50.268;8.694;2023-05-14T15:04:21;1.30;;;1.27;;
77978;SDS011;67169;50.268;8.694;2023-05-14T15:06:48;1.90;;;1.35;;
77978;SDS011;67169;50.268;8.694;2023-05-14T15:09:14;1.42;;;1.33;;
77978;SDS011;67169;50.268;8.694;2023-05-14T15:11:41;1.75;;;1.33;;
77978;SDS011;67169;50.268;8.694;2023-05-14T15:14:07;1.70;;;1.08;;
77978;SDS011;67169;50.268;8.694;2023-05-14T15:16:34;2.40;;;1.30;;
77978;SDS011;67169;50.268;8.694;2023-05-14T15:19:01;1.35;;;1.15;;
77978;SDS011;67169;50.268;8.694;2023-05-14T15:21:29;1.95;;;1.50;;
77978;SDS011;67169;50.268;8.694;2023-05-14T15:23:56;2.30;;;1.30;;
77978;SDS011;67169;50.268;8.694;2023-05-14T15:26:22;2.35;;;1.10;;
77978;SDS011;67169;50.268;8.694;2023-05-14T15:28:49;6.20;;;1.33;;
77978;SDS011;67169;50.268;8.694;2023-05-14T15:31:15;1.23;;;1.10;;
77978;SDS011;67169;50.268;8.694;2023-05-14T15:33:42;1.35;;;1.17;;
77978;SDS011;67169;50.268;8.694;2023-05-14T15:36:11;2.50;;;1.42;;
77978;SDS011;67169;50.268;8.694;2023-05-14T15:38:42;1.42;;;1.10;;